createdAt,value
2023-03-30T00:02:53.818Z,8.96
2023-03-30T00:07:56.864Z,9.08
2023-03-30T00:12:59.693Z,9.76
2023-03-30T00:18:03.986Z,10.30
2023-03-30T00:23:06.984Z,10.79
2023-03-30T00:28:09.751Z,11.04
2023-03-30T00:33:16.586Z,11.22
2023-03-30T00:38:20.872Z,11.34
2023-03-30T00:43:24.586Z,11.36
2023-03-30T00:48:32.703Z,11.29
2023-03-30T00:53:38.382Z,11.24
2023-03-30T00:58:43.529Z,11.24
2023-03-30T01:03:49.204Z,11.26
2023-03-30T01:08:52.968Z,11.40
2023-03-30T01:14:00.204Z,11.42
2023-03-30T01:19:25.524Z,11.44
2023-03-30T01:25:08.560Z,11.51
2023-03-30T01:30:27.854Z,11.42
2023-03-30T01:36:14.454Z,11.68
2023-03-30T01:41:29.820Z,11.71
2023-03-30T01:46:37.841Z,11.85
2023-03-30T01:51:48.141Z,11.82
2023-03-30T01:56:56.201Z,11.91
2023-03-30T02:02:04.256Z,11.83
2023-03-30T02:07:11.223Z,11.72
2023-03-30T02:12:15.861Z,11.78
2023-03-30T02:17:24.557Z,11.96
2023-03-30T02:22:29.438Z,12.03
2023-03-30T02:27:35.042Z,11.91
2023-03-30T02:32:42.890Z,11.97
2023-03-30T02:38:11.189Z,12.09
2023-03-30T02:43:39.582Z,12.14
2023-03-30T02:48:58.298Z,12.24
2023-03-30T02:54:12.259Z,12.21
2023-03-30T02:59:43.224Z,12.17
2023-03-30T03:04:47.115Z,12.16
2023-03-30T03:10:21.871Z,12.05
2023-03-30T03:15:26.162Z,12.00
2023-03-30T03:20:41.112Z,12.03
2023-03-30T03:25:44.439Z,12.10
2023-03-30T03:30:51.043Z,12.35
2023-03-30T03:35:59.908Z,12.33
2023-03-30T03:41:04.026Z,12.50
2023-03-30T03:46:09.653Z,12.60
2023-03-30T03:51:12.427Z,12.56
2023-03-30T03:56:15.441Z,12.33
2023-03-30T04:01:19.728Z,12.30
2023-03-30T04:06:22.535Z,12.17
2023-03-30T04:11:26.646Z,12.13
2023-03-30T04:16:52.479Z,12.03
2023-03-30T04:22:13.957Z,12.11
2023-03-30T04:27:42.675Z,12.03
2023-03-30T04:33:16.104Z,11.72
2023-03-30T04:38:36.466Z,11.46
2023-03-30T04:43:59.606Z,11.36
2023-03-30T04:49:21.715Z,11.27
2023-03-30T04:55:02.882Z,11.24
2023-03-30T05:00:09.041Z,11.46
2023-03-30T05:05:31.586Z,11.76
2023-03-30T05:10:52.987Z,11.90
2023-03-30T05:16:16.161Z,12.17
2023-03-30T05:21:23.098Z,12.35
2023-03-30T05:26:46.147Z,12.37
2023-03-30T05:32:12.503Z,12.62
2023-03-30T05:37:39.794Z,12.68
2023-03-30T05:43:09.394Z,12.75
2023-03-30T05:48:32.516Z,12.92
2023-03-30T05:53:59.747Z,12.87
2023-03-30T05:59:31.752Z,12.97
2023-03-30T06:04:53.466Z,12.76
2023-03-30T06:09:59.610Z,12.69
2023-03-30T06:15:05.089Z,12.82
2023-03-30T06:20:27.531Z,12.86
2023-03-30T06:25:32.463Z,12.83
2023-03-30T06:30:35.981Z,12.83
2023-03-30T06:35:46.182Z,13.12
2023-03-30T06:40:51.347Z,13.05
2023-03-30T06:45:57.948Z,13.10
2023-03-30T06:51:02.497Z,13.05
2023-03-30T06:56:08.654Z,13.29
2023-03-30T07:01:18.816Z,13.49
2023-03-30T07:06:40.656Z,13.59
2023-03-30T07:11:45.573Z,13.91
2023-03-30T07:16:49.281Z,13.98
2023-03-30T07:21:52.480Z,14.21
2023-03-30T07:27:01.078Z,14.31
2023-03-30T07:32:04.546Z,14.36
2023-03-30T07:37:07.818Z,14.30
2023-03-30T07:42:12.337Z,14.46
2023-03-30T07:47:16.629Z,14.62
2023-03-30T07:52:20.241Z,14.48
2023-03-30T07:57:32.427Z,14.03
2023-03-30T08:02:36.568Z,14.62
2023-03-30T08:07:39.720Z,14.89
2023-03-30T08:12:52.258Z,14.15
2023-03-30T08:17:55.291Z,14.23
2023-03-30T08:22:58.109Z,14.33
2023-03-30T08:28:02.314Z,14.36
2023-03-30T08:33:05.696Z,13.72
2023-03-30T08:38:09.853Z,13.54
2023-03-30T08:43:37.839Z,13.40
2023-03-30T08:48:42.915Z,13.34
2023-03-30T08:53:45.748Z,13.69
2023-03-30T08:59:00.123Z,13.66
2023-03-30T09:04:12.740Z,13.31
2023-03-30T09:09:17.882Z,14.14
2023-03-30T09:14:33.007Z,13.57
2023-03-30T09:19:41.768Z,13.96
2023-03-30T09:24:44.632Z,12.78
2023-03-30T09:29:51.607Z,11.24
2023-03-30T09:35:00.777Z,10.92
2023-03-30T09:40:19.734Z,9.93
2023-03-30T09:45:28.261Z,9.60
2023-03-30T09:50:31.744Z,9.47
2023-03-30T09:55:36.659Z,9.67
2023-03-30T10:00:41.423Z,9.97
2023-03-30T10:05:44.326Z,9.96
2023-03-30T10:10:53.867Z,10.27
2023-03-30T10:16:04.836Z,10.61
2023-03-30T10:21:17.980Z,11.22
2023-03-30T10:26:21.250Z,11.75
2023-03-30T10:31:28.063Z,12.53
2023-03-30T10:36:33.836Z,12.41
2023-03-30T10:41:39.675Z,12.61
2023-03-30T10:46:44.135Z,13.39
2023-03-30T10:51:57.783Z,13.96
2023-03-30T10:57:08.058Z,13.84
2023-03-30T11:02:31.378Z,14.73
2023-03-30T11:07:39.307Z,14.26
2023-03-30T11:12:45.978Z,13.38
2023-03-30T11:17:56.832Z,12.99
2023-03-30T11:23:11.923Z,12.74
2023-03-30T11:28:23.696Z,12.99
2023-03-30T11:33:35.567Z,13.92
2023-03-30T11:38:46.993Z,13.76
2023-03-30T11:43:50.563Z,13.47
2023-03-30T11:49:10.214Z,12.94
2023-03-30T11:54:38.537Z,13.28
2023-03-30T11:59:48.986Z,13.12
2023-03-30T12:04:57.795Z,13.14
2023-03-30T12:10:06.099Z,12.72
2023-03-30T12:15:26.631Z,12.63
2023-03-30T12:20:38.294Z,13.28
2023-03-30T12:26:01.351Z,14.04
2023-03-30T12:31:04.480Z,13.38
2023-03-30T12:36:26.054Z,13.58
2023-03-30T12:41:39.925Z,13.92
2023-03-30T12:46:51.397Z,13.52
2023-03-30T12:52:09.556Z,14.17
2023-03-30T12:57:28.141Z,14.13
2023-03-30T13:02:56.823Z,13.17
2023-03-30T13:08:05.536Z,9.83
2023-03-30T13:13:19.004Z,9.82
2023-03-30T13:18:36.766Z,11.80
2023-03-30T13:23:40.898Z,14.00
2023-03-30T13:28:58.144Z,13.16
2023-03-30T13:34:08.759Z,12.63
2023-03-30T13:39:22.747Z,12.64
2023-03-30T13:44:42.491Z,13.00
2023-03-30T13:49:53.948Z,13.45
2023-03-30T13:54:58.552Z,14.07
2023-03-30T14:00:09.465Z,14.34
2023-03-30T14:05:14.453Z,12.76
2023-03-30T14:10:20.754Z,13.24
2023-03-30T14:15:27.292Z,14.24
2023-03-30T14:20:45.475Z,14.85
2023-03-30T14:25:49.731Z,13.86
2023-03-30T14:30:54.345Z,14.12
2023-03-30T14:35:59.479Z,13.83
2023-03-30T14:41:08.370Z,14.03
2023-03-30T14:46:13.541Z,13.55
2023-03-30T14:51:25.520Z,13.34
2023-03-30T14:56:30.957Z,12.45
2023-03-30T15:01:35.105Z,11.17
2023-03-30T15:06:39.127Z,10.58
2023-03-30T15:11:45.778Z,10.55
2023-03-30T15:16:53.615Z,10.56
2023-03-30T15:21:59.508Z,10.38
2023-03-30T15:27:06.612Z,11.08
2023-03-30T15:32:16.486Z,11.36
2023-03-30T15:37:24.087Z,11.49
2023-03-30T15:42:30.866Z,11.31
2023-03-30T15:47:34.694Z,11.29
2023-03-30T15:52:42.948Z,11.47
2023-03-30T15:57:49.099Z,11.25
2023-03-30T16:02:57.637Z,11.94
2023-03-30T16:08:01.303Z,12.43
2023-03-30T16:13:07.000Z,12.70
2023-03-30T16:18:11.756Z,13.21
2023-03-30T16:23:14.623Z,12.93
2023-03-30T16:28:19.444Z,12.65
2023-03-30T16:33:22.393Z,12.74
2023-03-30T16:38:25.409Z,12.37
2023-03-30T16:43:29.609Z,11.72
2023-03-30T16:48:32.423Z,12.74
2023-03-30T16:53:35.458Z,12.38
2023-03-30T16:58:39.878Z,12.39
2023-03-30T17:03:42.758Z,12.04
2023-03-30T17:08:46.352Z,12.34
2023-03-30T17:13:51.261Z,12.26
2023-03-30T17:18:54.046Z,11.68
2023-03-30T17:23:56.879Z,10.38
2023-03-30T17:29:01.185Z,9.63
2023-03-30T17:34:04.100Z,9.29
2023-03-30T17:39:07.224Z,9.16
2023-03-30T17:44:11.482Z,8.97
2023-03-30T17:49:17.885Z,9.41
2023-03-30T17:54:20.847Z,9.39
2023-03-30T17:59:25.208Z,9.87
2023-03-30T18:04:28.589Z,9.97
2023-03-30T18:09:31.492Z,9.93
2023-03-30T18:14:35.677Z,10.02
2023-03-30T18:19:38.466Z,9.95
2023-03-30T18:24:42.496Z,9.86
2023-03-30T18:29:46.726Z,10.19
2023-03-30T18:34:49.489Z,9.59
2023-03-30T18:39:52.255Z,9.53
2023-03-30T18:44:56.444Z,9.85
2023-03-30T18:49:59.370Z,9.77
2023-03-30T18:55:02.159Z,9.72
2023-03-30T19:00:15.290Z,10.06
2023-03-30T19:05:20.602Z,10.29
2023-03-30T19:10:27.435Z,10.31
2023-03-30T19:15:33.714Z,10.30
2023-03-30T19:20:39.876Z,10.09
2023-03-30T19:25:43.905Z,10.16
2023-03-30T19:30:48.505Z,9.93
2023-03-30T19:35:51.359Z,10.09
2023-03-30T19:40:54.174Z,10.04
2023-03-30T19:45:58.438Z,9.98
2023-03-30T19:51:02.271Z,9.96
2023-03-30T19:56:10.254Z,9.72
2023-03-30T20:01:14.539Z,9.83
2023-03-30T20:06:17.329Z,10.05
2023-03-30T20:11:20.066Z,9.89
2023-03-30T20:16:25.936Z,10.10
2023-03-30T20:21:28.996Z,9.89
2023-03-30T20:26:32.681Z,9.85
2023-03-30T20:31:36.900Z,10.09
2023-03-30T20:36:40.419Z,9.94
2023-03-30T20:41:43.250Z,9.95
2023-03-30T20:46:47.475Z,10.14
2023-03-30T20:51:50.718Z,10.25
2023-03-30T20:56:53.532Z,10.35
2023-03-30T21:01:59.167Z,10.21
2023-03-30T21:07:02.131Z,10.47
2023-03-30T21:12:05.350Z,10.61
2023-03-30T21:17:09.680Z,10.74
2023-03-30T21:22:12.553Z,10.56
2023-03-30T21:27:15.650Z,10.69
2023-03-30T21:32:19.862Z,10.64
2023-03-30T21:37:22.653Z,10.59
2023-03-30T21:42:25.638Z,10.50
2023-03-30T21:47:29.809Z,10.43
2023-03-30T21:52:33.538Z,10.43
2023-03-30T21:57:36.379Z,10.34
2023-03-30T22:02:40.601Z,10.22
2023-03-30T22:07:43.504Z,9.99
2023-03-30T22:12:46.390Z,10.09
2023-03-30T22:17:50.543Z,10.00
2023-03-30T22:22:53.345Z,10.00
2023-03-30T22:27:57.888Z,9.96
2023-03-30T22:33:02.529Z,9.62
2023-03-30T22:38:05.711Z,9.81
2023-03-30T22:43:09.478Z,10.02
2023-03-30T22:48:13.697Z,9.85
2023-03-30T22:53:16.504Z,10.15
2023-03-30T22:58:19.247Z,10.04
2023-03-30T23:03:23.490Z,10.12
2023-03-30T23:08:26.306Z,9.81
2023-03-30T23:13:29.246Z,9.93
2023-03-30T23:18:33.940Z,10.02
2023-03-30T23:23:37.744Z,10.04
2023-03-30T23:28:42.294Z,10.20
2023-03-30T23:33:46.816Z,10.23
2023-03-30T23:38:51.582Z,10.26
2023-03-30T23:43:54.370Z,10.29
2023-03-30T23:48:58.577Z,10.47
2023-03-30T23:54:06.181Z,10.32
2023-03-30T23:59:10.094Z,10.25
